Terminal Aerodrome Forecast
Issued by NWS Caribou, ME

Home | Current Version | Previous Version | Text Only | Print | Product List | Glossary On
Versions: 1 2 3 4 5 6 7 8 9 10 11 12 13 14 15 16 17 18 19 20 21 22 23 24 25
000
FTUS41 KCAR 241900 AAA
TAFBGR
TAF AMD
KBGR 241905Z 2419/2518 34017G30KT P6SM OVC035
     FM250000 35014G22KT P6SM OVC035
     FM250700 34010KT P6SM SCT050=

USA.gov is the U.S. government's official web portal to all federal, state and local government web resources and services.